sensor_id;sensor_type;location;lat;lon;timestamp;temperature;humidity
64638;HTU21D;51049;45.046;38.950;2023-01-09T00:00:20;-11.63;72.76
64638;HTU21D;51049;45.046;38.950;2023-01-09T00:02:54;-11.63;72.74
64638;HTU21D;51049;45.046;38.950;2023-01-09T00:05:27;-11.65;72.74
64638;HTU21D;51049;45.046;38.950;2023-01-09T00:07:59;-11.67;72.76
64638;HTU21D;51049;45.046;38.950;2023-01-09T00:10:31;-11.68;72.77
64638;HTU21D;51049;45.046;38.950;2023-01-09T00:12:59;-11.69;72.79
64638;HTU21D;51049;45.046;38.950;2023-01-09T00:15:41;-11.67;72.80
64638;HTU21D;51049;45.046;38.950;2023-01-09T00:18:07;-11.69;72.81
64638;HTU21D;51049;45.046;38.950;2023-01-09T00:20:34;-11.68;72.81
64638;HTU21D;51049;45.046;38.950;2023-01-09T00:23:03;-11.68;72.79
64638;HTU21D;51049;45.046;38.950;2023-01-09T00:25:41;-11.69;72.79
64638;HTU21D;51049;45.046;38.950;2023-01-09T00:28:07;-11.70;72.80
64638;HTU21D;51049;45.046;38.950;2023-01-09T00:30:43;-11.73;72.85
64638;HTU21D;51049;45.046;38.950;2023-01-09T00:33:18;-11.71;72.88
64638;HTU21D;51049;45.046;38.950;2023-01-09T00:36:14;-11.71;72.87
64638;HTU21D;51049;45.046;38.950;2023-01-09T00:42:47;-11.71;72.81
64638;HTU21D;51049;45.046;38.950;2023-01-09T00:45:19;-11.73;72.79
64638;HTU21D;51049;45.046;38.950;2023-01-09T00:47:50;-11.74;72.80
64638;HTU21D;51049;45.046;38.950;2023-01-09T00:50:23;-11.75;72.80
64638;HTU21D;51049;45.046;38.950;2023-01-09T00:52:52;-11.77;72.79
64638;HTU21D;51049;45.046;38.950;2023-01-09T00:55:22;-11.78;72.83
64638;HTU21D;51049;45.046;38.950;2023-01-09T00:57:49;-11.78;72.84
64638;HTU21D;51049;45.046;38.950;2023-01-09T01:00:18;-11.80;72.84
64638;HTU21D;51049;45.046;38.950;2023-01-09T01:02:58;-11.82;72.83
64638;HTU21D;51049;45.046;38.950;2023-01-09T01:05:30;-11.84;72.83
64638;HTU21D;51049;45.046;38.950;2023-01-09T01:08:32;-11.86;72.85
64638;HTU21D;51049;45.046;38.950;2023-01-09T01:11:06;-11.86;72.87
64638;HTU21D;51049;45.046;38.950;2023-01-09T01:13:36;-11.86;72.87
64638;HTU21D;51049;45.046;38.950;2023-01-09T01:16:16;-11.88;72.84
64638;HTU21D;51049;45.046;38.950;2023-01-09T01:18:43;-11.88;72.83
64638;HTU21D;51049;45.046;38.950;2023-01-09T01:21:19;-11.89;72.86
64638;HTU21D;51049;45.046;38.950;2023-01-09T01:23:59;-11.90;72.85
64638;HTU21D;51049;45.046;38.950;2023-01-09T01:26:28;-11.90;72.84
64638;HTU21D;51049;45.046;38.950;2023-01-09T01:28:54;-11.90;72.86
64638;HTU21D;51049;45.046;38.950;2023-01-09T01:31:24;-11.91;72.87
64638;HTU21D;51049;45.046;38.950;2023-01-09T01:33:56;-11.90;72.83
64638;HTU21D;51049;45.046;38.950;2023-01-09T01:36:45;-11.92;72.83
64638;HTU21D;51049;45.046;38.950;2023-01-09T01:39:15;-11.93;72.82
64638;HTU21D;51049;45.046;38.950;2023-01-09T01:42:19;-11.94;72.84
64638;HTU21D;51049;45.046;38.950;2023-01-09T01:45:11;-11.96;72.83
64638;HTU21D;51049;45.046;38.950;2023-01-09T01:47:49;-11.97;72.81
64638;HTU21D;51049;45.046;38.950;2023-01-09T01:50:27;-11.96;72.80
64638;HTU21D;51049;45.046;38.950;2023-01-09T01:55:44;-11.98;72.79
64638;HTU21D;51049;45.046;38.950;2023-01-09T01:58:18;-12.01;72.80
64638;HTU21D;51049;45.046;38.950;2023-01-09T02:00:47;-12.03;72.80
64638;HTU21D;51049;45.046;38.950;2023-01-09T02:03:24;-12.03;72.80
64638;HTU21D;51049;45.046;38.950;2023-01-09T02:05:52;-12.04;72.80
64638;HTU21D;51049;45.046;38.950;2023-01-09T02:08:18;-12.03;72.81
64638;HTU21D;51049;45.046;38.950;2023-01-09T02:10:47;-12.05;72.78
64638;HTU21D;51049;45.046;38.950;2023-01-09T02:13:25;-12.05;72.80
64638;HTU21D;51049;45.046;38.950;2023-01-09T02:16:00;-12.06;72.79
64638;HTU21D;51049;45.046;38.950;2023-01-09T02:19:10;-12.07;72.77
64638;HTU21D;51049;45.046;38.950;2023-01-09T02:25:02;-12.11;72.77
64638;HTU21D;51049;45.046;38.950;2023-01-09T02:30:34;-12.12;72.78
64638;HTU21D;51049;45.046;38.950;2023-01-09T02:39:34;-12.12;72.80
64638;HTU21D;51049;45.046;38.950;2023-01-09T02:42:18;-12.12;72.76
64638;HTU21D;51049;45.046;38.950;2023-01-09T02:44:45;-12.15;72.74
64638;HTU21D;51049;45.046;38.950;2023-01-09T02:49:58;-12.15;72.83
64638;HTU21D;51049;45.046;38.950;2023-01-09T03:01:31;-12.17;72.82
64638;HTU21D;51049;45.046;38.950;2023-01-09T03:07:02;-12.18;72.82
64638;HTU21D;51049;45.046;38.950;2023-01-09T03:09:37;-12.18;72.83
64638;HTU21D;51049;45.046;38.950;2023-01-09T03:12:13;-12.17;72.86
64638;HTU21D;51049;45.046;38.950;2023-01-09T03:14:52;-12.15;72.82
64638;HTU21D;51049;45.046;38.950;2023-01-09T03:17:42;-12.12;72.87
64638;HTU21D;51049;45.046;38.950;2023-01-09T03:20:26;-12.10;72.84
64638;HTU21D;51049;45.046;38.950;2023-01-09T03:23:02;-12.10;72.80
64638;HTU21D;51049;45.046;38.950;2023-01-09T03:25:29;-12.09;72.80
64638;HTU21D;51049;45.046;38.950;2023-01-09T03:28:12;-12.09;72.80
64638;HTU21D;51049;45.046;38.950;2023-01-09T03:31:00;-12.10;72.81
64638;HTU21D;51049;45.046;38.950;2023-01-09T03:40:05;-12.10;72.89
64638;HTU21D;51049;45.046;38.950;2023-01-09T03:42:40;-12.09;72.91
64638;HTU21D;51049;45.046;38.950;2023-01-09T03:45:16;-12.06;72.93
64638;HTU21D;51049;45.046;38.950;2023-01-09T03:48:00;-12.04;72.96
64638;HTU21D;51049;45.046;38.950;2023-01-09T03:50:35;-12.01;72.97
64638;HTU21D;51049;45.046;38.950;2023-01-09T03:53:13;-11.97;72.95
64638;HTU21D;51049;45.046;38.950;2023-01-09T03:55:50;-11.95;72.95
64638;HTU21D;51049;45.046;38.950;2023-01-09T03:58:20;-11.94;72.93
64638;HTU21D;51049;45.046;38.950;2023-01-09T04:00:47;-11.91;72.90
64638;HTU21D;51049;45.046;38.950;2023-01-09T04:03:22;-11.93;72.87
64638;HTU21D;51049;45.046;38.950;2023-01-09T04:05:55;-11.93;72.93
64638;HTU21D;51049;45.046;38.950;2023-01-09T04:08:22;-11.93;72.93
64638;HTU21D;51049;45.046;38.950;2023-01-09T04:10:55;-11.93;72.99
64638;HTU21D;51049;45.046;38.950;2023-01-09T04:13:30;-11.93;72.99
64638;HTU21D;51049;45.046;38.950;2023-01-09T04:15:58;-11.92;72.99
64638;HTU21D;51049;45.046;38.950;2023-01-09T04:18:25;-11.91;73.00
64638;HTU21D;51049;45.046;38.950;2023-01-09T04:20:53;-11.90;73.03
64638;HTU21D;51049;45.046;38.950;2023-01-09T04:23:19;-11.90;73.02
64638;HTU21D;51049;45.046;38.950;2023-01-09T04:25:48;-11.90;72.99
64638;HTU21D;51049;45.046;38.950;2023-01-09T04:31:29;-11.94;73.02
64638;HTU21D;51049;45.046;38.950;2023-01-09T04:34:01;-11.95;73.02
64638;HTU21D;51049;45.046;38.950;2023-01-09T04:39:36;-11.95;73.00
64638;HTU21D;51049;45.046;38.950;2023-01-09T04:42:08;-11.94;73.03
64638;HTU21D;51049;45.046;38.950;2023-01-09T04:44:34;-11.91;73.05
64638;HTU21D;51049;45.046;38.950;2023-01-09T04:47:04;-11.90;73.05
64638;HTU21D;51049;45.046;38.950;2023-01-09T04:49:33;-11.88;73.03
64638;HTU21D;51049;45.046;38.950;2023-01-09T04:52:02;-11.85;72.99
64638;HTU21D;51049;45.046;38.950;2023-01-09T04:54:31;-11.85;72.98
64638;HTU21D;51049;45.046;38.950;2023-01-09T04:57:05;-11.85;72.92
64638;HTU21D;51049;45.046;38.950;2023-01-09T04:59:37;-11.85;72.93
64638;HTU21D;51049;45.046;38.950;2023-01-09T05:02:08;-11.84;72.93
64638;HTU21D;51049;45.046;38.950;2023-01-09T05:04:34;-11.85;72.96
64638;HTU21D;51049;45.046;38.950;2023-01-09T05:07:01;-11.83;72.98
64638;HTU21D;51049;45.046;38.950;2023-01-09T05:09:30;-11.81;72.98
64638;HTU21D;51049;45.046;38.950;2023-01-09T05:12:03;-11.78;72.99
64638;HTU21D;51049;45.046;38.950;2023-01-09T05:14:29;-11.76;73.00
64638;HTU21D;51049;45.046;38.950;2023-01-09T05:17:05;-11.70;73.01
64638;HTU21D;51049;45.046;38.950;2023-01-09T05:19:51;-11.67;73.03
64638;HTU21D;51049;45.046;38.950;2023-01-09T05:22:18;-11.64;73.03
64638;HTU21D;51049;45.046;38.950;2023-01-09T05:25:04;-11.58;73.07
64638;HTU21D;51049;45.046;38.950;2023-01-09T05:27:44;-11.51;73.06
64638;HTU21D;51049;45.046;38.950;2023-01-09T05:30:33;-11.46;73.05
64638;HTU21D;51049;45.046;38.950;2023-01-09T05:37:36;-11.26;73.01
64638;HTU21D;51049;45.046;38.950;2023-01-09T05:44:07;-11.10;72.96
64638;HTU21D;51049;45.046;38.950;2023-01-09T05:46:33;-11.04;72.92
64638;HTU21D;51049;45.046;38.950;2023-01-09T05:57:20;-10.74;72.86
64638;HTU21D;51049;45.046;38.950;2023-01-09T06:00:42;-10.64;72.84
64638;HTU21D;51049;45.046;38.950;2023-01-09T06:03:19;-10.57;72.84
64638;HTU21D;51049;45.046;38.950;2023-01-09T06:05:49;-10.50;72.87
64638;HTU21D;51049;45.046;38.950;2023-01-09T06:08:16;-10.43;72.88
64638;HTU21D;51049;45.046;38.950;2023-01-09T06:10:56;-10.37;72.87
64638;HTU21D;51049;45.046;38.950;2023-01-09T06:13:34;-10.33;72.87
64638;HTU21D;51049;45.046;38.950;2023-01-09T06:16:01;-10.26;72.90
64638;HTU21D;51049;45.046;38.950;2023-01-09T06:18:27;-10.20;72.87
64638;HTU21D;51049;45.046;38.950;2023-01-09T06:21:02;-10.15;72.90
64638;HTU21D;51049;45.046;38.950;2023-01-09T06:23:28;-10.08;72.92
64638;HTU21D;51049;45.046;38.950;2023-01-09T06:25:54;-10.02;72.90
64638;HTU21D;51049;45.046;38.950;2023-01-09T06:28:26;-9.96;72.92
64638;HTU21D;51049;45.046;38.950;2023-01-09T06:31:08;-9.88;72.93
64638;HTU21D;51049;45.046;38.950;2023-01-09T06:33:43;-9.81;72.90
64638;HTU21D;51049;45.046;38.950;2023-01-09T06:49:05;-9.47;72.77
64638;HTU21D;51049;45.046;38.950;2023-01-09T07:03:12;-9.13;72.73
64638;HTU21D;51049;45.046;38.950;2023-01-09T07:09:29;-8.92;72.82
64638;HTU21D;51049;45.046;38.950;2023-01-09T07:12:08;-8.82;72.83
64638;HTU21D;51049;45.046;38.950;2023-01-09T07:33:39;-8.07;72.67
64638;HTU21D;51049;45.046;38.950;2023-01-09T07:37:12;-7.93;72.68
64638;HTU21D;51049;45.046;38.950;2023-01-09T08:38:41;-5.71;72.41
64638;HTU21D;51049;45.046;38.950;2023-01-09T09:08:21;-4.68;72.37
64638;HTU21D;51049;45.046;38.950;2023-01-09T09:19:27;-4.21;72.35
64638;HTU21D;51049;45.046;38.950;2023-01-09T09:38:52;-3.15;72.95
64638;HTU21D;51049;45.046;38.950;2023-01-09T10:37:52;3.02;75.38
64638;HTU21D;51049;45.046;38.950;2023-01-09T10:49:31;5.77;70.86
64638;HTU21D;51049;45.046;38.950;2023-01-09T11:00:39;4.23;71.06
64638;HTU21D;51049;45.046;38.950;2023-01-09T11:03:50;4.43;71.35
64638;HTU21D;51049;45.046;38.950;2023-01-09T11:06:58;4.19;70.26
64638;HTU21D;51049;45.046;38.950;2023-01-09T11:10:12;3.55;69.13
64638;HTU21D;51049;45.046;38.950;2023-01-09T11:17:02;2.26;70.11
64638;HTU21D;51049;45.046;38.950;2023-01-09T11:20:28;1.98;70.26
64638;HTU21D;51049;45.046;38.950;2023-01-09T11:41:29;0.90;70.24
64638;HTU21D;51049;45.046;38.950;2023-01-09T11:48:25;0.74;70.29
64638;HTU21D;51049;45.046;38.950;2023-01-09T12:10:28;0.60;70.16
64638;HTU21D;51049;45.046;38.950;2023-01-09T13:04:54;0.09;69.90
64638;HTU21D;51049;45.046;38.950;2023-01-09T13:27:39;-0.06;69.82
64638;HTU21D;51049;45.046;38.950;2023-01-09T13:43:33;-0.22;69.90
64638;HTU21D;51049;45.046;38.950;2023-01-09T13:51:34;-0.26;69.88
64638;HTU21D;51049;45.046;38.950;2023-01-09T14:01:43;-0.34;69.91
64638;HTU21D;51049;45.046;38.950;2023-01-09T15:10:42;-0.36;68.33
64638;HTU21D;51049;45.046;38.950;2023-01-09T15:28:40;-0.98;68.25
64638;HTU21D;51049;45.046;38.950;2023-01-09T15:31:23;-1.00;68.22
64638;HTU21D;51049;45.046;38.950;2023-01-09T15:33:56;-1.01;68.20
64638;HTU21D;51049;45.046;38.950;2023-01-09T15:36:45;-1.02;68.20
64638;HTU21D;51049;45.046;38.950;2023-01-09T15:39:37;-1.02;68.19
64638;HTU21D;51049;45.046;38.950;2023-01-09T15:42:23;-1.04;68.18
64638;HTU21D;51049;45.046;38.950;2023-01-09T15:54:58;-1.27;68.20
64638;HTU21D;51049;45.046;38.950;2023-01-09T16:05:14;-1.57;68.33
64638;HTU21D;51049;45.046;38.950;2023-01-09T16:07:54;-1.61;68.38
64638;HTU21D;51049;45.046;38.950;2023-01-09T16:10:52;-1.65;68.47
64638;HTU21D;51049;45.046;38.950;2023-01-09T16:17:21;-1.72;68.56
64638;HTU21D;51049;45.046;38.950;2023-01-09T16:20:49;-1.71;68.57
64638;HTU21D;51049;45.046;38.950;2023-01-09T16:27:29;-1.75;68.40
64638;HTU21D;51049;45.046;38.950;2023-01-09T16:30:26;-1.82;68.34
64638;HTU21D;51049;45.046;38.950;2023-01-09T16:33:47;-1.93;68.39
64638;HTU21D;51049;45.046;38.950;2023-01-09T16:40:26;-2.18;68.50
